sensor_id;sensor_type;location;lat;lon;timestamp;P1;durP1;ratioP1;P2;durP2;ratioP2
75450;SDS011;64029;48.244;9.188;2022-12-20T00:00:03;36.07;;;20.17;;
75450;SDS011;64029;48.244;9.188;2022-12-20T00:02:30;46.13;;;21.57;;
75450;SDS011;64029;48.244;9.188;2022-12-20T00:04:57;42.67;;;24.10;;
75450;SDS011;64029;48.244;9.188;2022-12-20T00:07:24;37.83;;;23.20;;
75450;SDS011;64029;48.244;9.188;2022-12-20T00:09:51;34.63;;;21.27;;
75450;SDS011;64029;48.244;9.188;2022-12-20T00:12:19;42.17;;;22.60;;
75450;SDS011;64029;48.244;9.188;2022-12-20T00:14:46;41.43;;;22.20;;
75450;SDS011;64029;48.244;9.188;2022-12-20T00:17:13;37.23;;;21.00;;
75450;SDS011;64029;48.244;9.188;2022-12-20T00:19:39;44.10;;;22.07;;
75450;SDS011;64029;48.244;9.188;2022-12-20T00:22:08;45.47;;;22.37;;
75450;SDS011;64029;48.244;9.188;2022-12-20T00:24:35;39.17;;;21.10;;
75450;SDS011;64029;48.244;9.188;2022-12-20T00:27:02;43.33;;;23.57;;
75450;SDS011;64029;48.244;9.188;2022-12-20T00:29:30;45.90;;;22.20;;
75450;SDS011;64029;48.244;9.188;2022-12-20T00:31:57;44.03;;;22.20;;
75450;SDS011;64029;48.244;9.188;2022-12-20T00:34:24;37.80;;;19.77;;
75450;SDS011;64029;48.244;9.188;2022-12-20T00:36:51;43.53;;;21.20;;
75450;SDS011;64029;48.244;9.188;2022-12-20T00:39:18;40.83;;;21.00;;
75450;SDS011;64029;48.244;9.188;2022-12-20T00:41:45;45.17;;;22.00;;
75450;SDS011;64029;48.244;9.188;2022-12-20T00:44:12;43.07;;;20.23;;
75450;SDS011;64029;48.244;9.188;2022-12-20T00:46:40;38.30;;;21.60;;
75450;SDS011;64029;48.244;9.188;2022-12-20T00:49:07;36.23;;;20.70;;
75450;SDS011;64029;48.244;9.188;2022-12-20T00:51:33;39.97;;;20.33;;
75450;SDS011;64029;48.244;9.188;2022-12-20T00:54:00;38.13;;;21.60;;
75450;SDS011;64029;48.244;9.188;2022-12-20T00:56:28;39.03;;;20.30;;
75450;SDS011;64029;48.244;9.188;2022-12-20T00:58:56;38.57;;;20.00;;
75450;SDS011;64029;48.244;9.188;2022-12-20T01:01:25;33.80;;;18.70;;
75450;SDS011;64029;48.244;9.188;2022-12-20T01:03:55;38.37;;;21.10;;
75450;SDS011;64029;48.244;9.188;2022-12-20T01:06:23;40.53;;;20.90;;
75450;SDS011;64029;48.244;9.188;2022-12-20T01:08:50;36.97;;;19.00;;
75450;SDS011;64029;48.244;9.188;2022-12-20T01:11:18;39.50;;;18.87;;
75450;SDS011;64029;48.244;9.188;2022-12-20T01:13:46;35.57;;;18.83;;
75450;SDS011;64029;48.244;9.188;2022-12-20T01:16:15;35.00;;;17.80;;
75450;SDS011;64029;48.244;9.188;2022-12-20T01:18:44;34.40;;;19.37;;
75450;SDS011;64029;48.244;9.188;2022-12-20T01:21:13;36.17;;;19.10;;
75450;SDS011;64029;48.244;9.188;2022-12-20T01:23:41;33.23;;;17.93;;
75450;SDS011;64029;48.244;9.188;2022-12-20T01:26:09;33.07;;;18.20;;
75450;SDS011;64029;48.244;9.188;2022-12-20T01:28:38;32.30;;;18.03;;
75450;SDS011;64029;48.244;9.188;2022-12-20T01:31:07;34.07;;;17.90;;
75450;SDS011;64029;48.244;9.188;2022-12-20T01:33:35;34.63;;;18.30;;
75450;SDS011;64029;48.244;9.188;2022-12-20T01:36:03;27.10;;;16.83;;
75450;SDS011;64029;48.244;9.188;2022-12-20T01:38:33;32.90;;;17.70;;
75450;SDS011;64029;48.244;9.188;2022-12-20T01:41:00;34.60;;;17.10;;
75450;SDS011;64029;48.244;9.188;2022-12-20T01:43:44;30.27;;;16.93;;
75450;SDS011;64029;48.244;9.188;2022-12-20T01:46:13;26.40;;;15.00;;
75450;SDS011;64029;48.244;9.188;2022-12-20T01:48:41;27.33;;;15.23;;
75450;SDS011;64029;48.244;9.188;2022-12-20T01:51:11;24.80;;;15.77;;
75450;SDS011;64029;48.244;9.188;2022-12-20T01:53:40;28.30;;;14.13;;
75450;SDS011;64029;48.244;9.188;2022-12-20T01:56:07;24.57;;;12.17;;
75450;SDS011;64029;48.244;9.188;2022-12-20T01:58:35;19.90;;;11.93;;
75450;SDS011;64029;48.244;9.188;2022-12-20T02:01:04;17.90;;;11.30;;
75450;SDS011;64029;48.244;9.188;2022-12-20T02:03:31;22.03;;;12.37;;
75450;SDS011;64029;48.244;9.188;2022-12-20T02:06:08;18.40;;;11.00;;
75450;SDS011;64029;48.244;9.188;2022-12-20T02:08:42;21.97;;;11.20;;
75450;SDS011;64029;48.244;9.188;2022-12-20T02:11:14;21.33;;;12.30;;
75450;SDS011;64029;48.244;9.188;2022-12-20T02:13:55;21.83;;;13.10;;
75450;SDS011;64029;48.244;9.188;2022-12-20T02:16:35;24.47;;;14.17;;
75450;SDS011;64029;48.244;9.188;2022-12-20T02:19:10;25.07;;;13.67;;
75450;SDS011;64029;48.244;9.188;2022-12-20T02:21:51;34.00;;;15.70;;
75450;SDS011;64029;48.244;9.188;2022-12-20T02:24:43;27.13;;;14.90;;
75450;SDS011;64029;48.244;9.188;2022-12-20T02:27:34;29.13;;;15.43;;
75450;SDS011;64029;48.244;9.188;2022-12-20T02:30:15;28.00;;;14.60;;
75450;SDS011;64029;48.244;9.188;2022-12-20T02:32:47;26.53;;;15.70;;
75450;SDS011;64029;48.244;9.188;2022-12-20T02:35:19;25.60;;;14.70;;
75450;SDS011;64029;48.244;9.188;2022-12-20T02:37:48;29.50;;;16.70;;
75450;SDS011;64029;48.244;9.188;2022-12-20T02:40:17;27.30;;;16.17;;
75450;SDS011;64029;48.244;9.188;2022-12-20T02:42:47;26.47;;;14.70;;
75450;SDS011;64029;48.244;9.188;2022-12-20T02:45:20;32.43;;;15.83;;
75450;SDS011;64029;48.244;9.188;2022-12-20T02:47:51;25.40;;;14.10;;
75450;SDS011;64029;48.244;9.188;2022-12-20T02:50:22;32.63;;;16.17;;
75450;SDS011;64029;48.244;9.188;2022-12-20T02:52:53;22.33;;;13.40;;
75450;SDS011;64029;48.244;9.188;2022-12-20T02:55:22;27.17;;;14.63;;
75450;SDS011;64029;48.244;9.188;2022-12-20T02:57:53;24.10;;;14.27;;
75450;SDS011;64029;48.244;9.188;2022-12-20T03:00:25;22.80;;;14.00;;
75450;SDS011;64029;48.244;9.188;2022-12-20T03:02:59;27.13;;;15.00;;
75450;SDS011;64029;48.244;9.188;2022-12-20T03:05:45;27.47;;;13.87;;
75450;SDS011;64029;48.244;9.188;2022-12-20T03:08:13;20.10;;;12.30;;
75450;SDS011;64029;48.244;9.188;2022-12-20T03:10:40;22.30;;;13.13;;
75450;SDS011;64029;48.244;9.188;2022-12-20T03:13:07;22.30;;;13.77;;
75450;SDS011;64029;48.244;9.188;2022-12-20T03:15:35;26.33;;;15.47;;
75450;SDS011;64029;48.244;9.188;2022-12-20T03:18:02;30.03;;;14.80;;
75450;SDS011;64029;48.244;9.188;2022-12-20T03:20:29;24.90;;;15.13;;
75450;SDS011;64029;48.244;9.188;2022-12-20T03:22:56;24.00;;;14.10;;
75450;SDS011;64029;48.244;9.188;2022-12-20T03:25:23;24.07;;;14.23;;
75450;SDS011;64029;48.244;9.188;2022-12-20T03:27:50;22.83;;;13.27;;
75450;SDS011;64029;48.244;9.188;2022-12-20T03:30:17;23.80;;;12.90;;
75450;SDS011;64029;48.244;9.188;2022-12-20T03:32:46;23.53;;;13.60;;
75450;SDS011;64029;48.244;9.188;2022-12-20T03:35:13;24.80;;;14.03;;
75450;SDS011;64029;48.244;9.188;2022-12-20T03:37:40;28.27;;;15.37;;
75450;SDS011;64029;48.244;9.188;2022-12-20T03:40:08;22.87;;;13.40;;
75450;SDS011;64029;48.244;9.188;2022-12-20T03:42:35;23.13;;;13.40;;
75450;SDS011;64029;48.244;9.188;2022-12-20T03:45:02;25.27;;;13.60;;
75450;SDS011;64029;48.244;9.188;2022-12-20T03:47:30;27.73;;;13.23;;
75450;SDS011;64029;48.244;9.188;2022-12-20T03:49:58;22.40;;;13.00;;
75450;SDS011;64029;48.244;9.188;2022-12-20T03:52:25;19.30;;;11.60;;
75450;SDS011;64029;48.244;9.188;2022-12-20T03:54:52;23.47;;;12.90;;
75450;SDS011;64029;48.244;9.188;2022-12-20T03:57:19;21.93;;;11.87;;
75450;SDS011;64029;48.244;9.188;2022-12-20T03:59:46;17.30;;;10.80;;
75450;SDS011;64029;48.244;9.188;2022-12-20T04:02:13;18.47;;;11.40;;
75450;SDS011;64029;48.244;9.188;2022-12-20T04:04:40;23.97;;;12.77;;
75450;SDS011;64029;48.244;9.188;2022-12-20T04:07:08;20.33;;;11.87;;
75450;SDS011;64029;48.244;9.188;2022-12-20T04:09:36;19.00;;;11.57;;
75450;SDS011;64029;48.244;9.188;2022-12-20T04:12:03;16.60;;;10.10;;
75450;SDS011;64029;48.244;9.188;2022-12-20T04:14:30;21.57;;;12.80;;
75450;SDS011;64029;48.244;9.188;2022-12-20T04:16:57;22.07;;;10.83;;
75450;SDS011;64029;48.244;9.188;2022-12-20T04:19:24;19.30;;;11.50;;
75450;SDS011;64029;48.244;9.188;2022-12-20T04:21:50;20.77;;;11.20;;
75450;SDS011;64029;48.244;9.188;2022-12-20T04:24:21;19.13;;;10.37;;
75450;SDS011;64029;48.244;9.188;2022-12-20T04:26:48;19.93;;;11.97;;
75450;SDS011;64029;48.244;9.188;2022-12-20T04:29:14;18.47;;;11.33;;
75450;SDS011;64029;48.244;9.188;2022-12-20T04:31:41;17.90;;;11.80;;
75450;SDS011;64029;48.244;9.188;2022-12-20T04:34:08;20.03;;;12.10;;
75450;SDS011;64029;48.244;9.188;2022-12-20T04:36:35;18.17;;;11.40;;
75450;SDS011;64029;48.244;9.188;2022-12-20T04:39:02;19.67;;;10.53;;
75450;SDS011;64029;48.244;9.188;2022-12-20T04:41:30;18.83;;;11.33;;
75450;SDS011;64029;48.244;9.188;2022-12-20T04:43:57;20.17;;;10.57;;
75450;SDS011;64029;48.244;9.188;2022-12-20T04:46:25;22.10;;;11.90;;
75450;SDS011;64029;48.244;9.188;2022-12-20T04:48:52;17.77;;;9.83;;
75450;SDS011;64029;48.244;9.188;2022-12-20T04:51:19;20.10;;;12.77;;
75450;SDS011;64029;48.244;9.188;2022-12-20T04:53:46;17.80;;;11.17;;
75450;SDS011;64029;48.244;9.188;2022-12-20T04:56:12;23.07;;;11.43;;
75450;SDS011;64029;48.244;9.188;2022-12-20T04:58:42;17.53;;;10.57;;
75450;SDS011;64029;48.244;9.188;2022-12-20T05:01:09;21.37;;;11.90;;
75450;SDS011;64029;48.244;9.188;2022-12-20T05:03:36;23.73;;;12.93;;
75450;SDS011;64029;48.244;9.188;2022-12-20T05:06:04;18.30;;;11.80;;
75450;SDS011;64029;48.244;9.188;2022-12-20T05:08:31;20.50;;;12.20;;
75450;SDS011;64029;48.244;9.188;2022-12-20T05:10:58;22.73;;;12.67;;
75450;SDS011;64029;48.244;9.188;2022-12-20T05:13:25;22.47;;;13.80;;
75450;SDS011;64029;48.244;9.188;2022-12-20T05:15:54;24.80;;;12.93;;
75450;SDS011;64029;48.244;9.188;2022-12-20T05:18:22;21.80;;;12.20;;
75450;SDS011;64029;48.244;9.188;2022-12-20T05:20:49;19.67;;;11.53;;
75450;SDS011;64029;48.244;9.188;2022-12-20T05:23:36;24.37;;;13.03;;
75450;SDS011;64029;48.244;9.188;2022-12-20T05:26:21;23.63;;;10.93;;
75450;SDS011;64029;48.244;9.188;2022-12-20T05:28:48;25.27;;;12.93;;
75450;SDS011;64029;48.244;9.188;2022-12-20T05:31:17;26.60;;;13.50;;
75450;SDS011;64029;48.244;9.188;2022-12-20T05:33:44;20.03;;;11.43;;
75450;SDS011;64029;48.244;9.188;2022-12-20T05:36:11;20.20;;;11.77;;
75450;SDS011;64029;48.244;9.188;2022-12-20T05:38:38;21.10;;;13.03;;
75450;SDS011;64029;48.244;9.188;2022-12-20T05:41:05;23.57;;;12.10;;
75450;SDS011;64029;48.244;9.188;2022-12-20T05:43:32;21.57;;;12.37;;
75450;SDS011;64029;48.244;9.188;2022-12-20T05:45:59;24.33;;;11.97;;
75450;SDS011;64029;48.244;9.188;2022-12-20T05:48:28;22.07;;;11.83;;
75450;SDS011;64029;48.244;9.188;2022-12-20T05:50:54;24.10;;;12.03;;
75450;SDS011;64029;48.244;9.188;2022-12-20T05:53:21;21.27;;;13.37;;
75450;SDS011;64029;48.244;9.188;2022-12-20T05:55:50;21.70;;;11.37;;
75450;SDS011;64029;48.244;9.188;2022-12-20T05:58:18;23.70;;;12.40;;
75450;SDS011;64029;48.244;9.188;2022-12-20T06:00:45;24.53;;;13.13;;
75450;SDS011;64029;48.244;9.188;2022-12-20T06:03:12;21.37;;;12.70;;
75450;SDS011;64029;48.244;9.188;2022-12-20T06:05:41;22.10;;;11.33;;
75450;SDS011;64029;48.244;9.188;2022-12-20T06:08:09;22.80;;;12.17;;
75450;SDS011;64029;48.244;9.188;2022-12-20T06:10:36;22.63;;;13.60;;
75450;SDS011;64029;48.244;9.188;2022-12-20T06:13:04;19.70;;;12.07;;
75450;SDS011;64029;48.244;9.188;2022-12-20T06:15:32;19.37;;;11.87;;
75450;SDS011;64029;48.244;9.188;2022-12-20T06:17:58;26.90;;;13.60;;
75450;SDS011;64029;48.244;9.188;2022-12-20T06:20:25;20.30;;;11.93;;
75450;SDS011;64029;48.244;9.188;2022-12-20T06:22:54;19.97;;;12.27;;
75450;SDS011;64029;48.244;9.188;2022-12-20T06:25:21;20.77;;;12.40;;
75450;SDS011;64029;48.244;9.188;2022-12-20T06:27:48;20.53;;;12.33;;
75450;SDS011;64029;48.244;9.188;2022-12-20T06:30:15;24.13;;;12.80;;
75450;SDS011;64029;48.244;9.188;2022-12-20T06:32:42;22.13;;;12.50;;
75450;SDS011;64029;48.244;9.188;2022-12-20T06:35:09;27.03;;;13.60;;
75450;SDS011;64029;48.244;9.188;2022-12-20T06:37:36;20.30;;;11.53;;
75450;SDS011;64029;48.244;9.188;2022-12-20T06:40:07;24.70;;;12.23;;
75450;SDS011;64029;48.244;9.188;2022-12-20T06:42:34;20.23;;;11.80;;
75450;SDS011;64029;48.244;9.188;2022-12-20T06:45:01;24.67;;;12.50;;
75450;SDS011;64029;48.244;9.188;2022-12-20T06:47:28;27.80;;;12.40;;
75450;SDS011;64029;48.244;9.188;2022-12-20T06:49:55;22.20;;;12.17;;
75450;SDS011;64029;48.244;9.188;2022-12-20T06:52:22;19.50;;;11.47;;
75450;SDS011;64029;48.244;9.188;2022-12-20T06:54:49;21.17;;;12.27;;
75450;SDS011;64029;48.244;9.188;2022-12-20T06:57:17;18.97;;;12.03;;
75450;SDS011;64029;48.244;9.188;2022-12-20T06:59:44;22.03;;;12.50;;
75450;SDS011;64029;48.244;9.188;2022-12-20T07:02:11;21.83;;;12.40;;
75450;SDS011;64029;48.244;9.188;2022-12-20T07:04:38;21.07;;;13.07;;
75450;SDS011;64029;48.244;9.188;2022-12-20T07:07:05;23.53;;;13.33;;
75450;SDS011;64029;48.244;9.188;2022-12-20T07:09:32;23.20;;;12.90;;
75450;SDS011;64029;48.244;9.188;2022-12-20T07:11:59;20.80;;;11.37;;
75450;SDS011;64029;48.244;9.188;2022-12-20T07:14:27;22.43;;;13.73;;
75450;SDS011;64029;48.244;9.188;2022-12-20T07:16:54;20.00;;;12.00;;
75450;SDS011;64029;48.244;9.188;2022-12-20T07:19:21;21.77;;;13.03;;
75450;SDS011;64029;48.244;9.188;2022-12-20T07:21:48;23.20;;;13.80;;
75450;SDS011;64029;48.244;9.188;2022-12-20T07:24:15;23.63;;;14.60;;
75450;SDS011;64029;48.244;9.188;2022-12-20T07:26:42;24.27;;;14.03;;
75450;SDS011;64029;48.244;9.188;2022-12-20T07:29:10;24.27;;;14.37;;
75450;SDS011;64029;48.244;9.188;2022-12-20T07:31:39;23.40;;;14.90;;
75450;SDS011;64029;48.244;9.188;2022-12-20T07:34:05;28.30;;;16.90;;
75450;SDS011;64029;48.244;9.188;2022-12-20T07:36:32;34.87;;;20.23;;
75450;SDS011;64029;48.244;9.188;2022-12-20T07:38:59;45.67;;;23.77;;
75450;SDS011;64029;48.244;9.188;2022-12-20T07:41:26;40.80;;;22.10;;
75450;SDS011;64029;48.244;9.188;2022-12-20T07:43:53;36.53;;;20.87;;
75450;SDS011;64029;48.244;9.188;2022-12-20T07:46:22;31.37;;;18.73;;
75450;SDS011;64029;48.244;9.188;2022-12-20T07:48:50;36.73;;;18.73;;
75450;SDS011;64029;48.244;9.188;2022-12-20T07:51:18;29.43;;;17.33;;
75450;SDS011;64029;48.244;9.188;2022-12-20T07:53:49;24.70;;;14.43;;
75450;SDS011;64029;48.244;9.188;2022-12-20T07:56:19;25.77;;;15.70;;
75450;SDS011;64029;48.244;9.188;2022-12-20T07:58:47;30.83;;;16.57;;
75450;SDS011;64029;48.244;9.188;2022-12-20T08:01:17;30.07;;;17.97;;
75450;SDS011;64029;48.244;9.188;2022-12-20T08:03:46;35.70;;;18.93;;
75450;SDS011;64029;48.244;9.188;2022-12-20T08:06:18;57.33;;;28.90;;
75450;SDS011;64029;48.244;9.188;2022-12-20T08:08:46;45.07;;;22.07;;
75450;SDS011;64029;48.244;9.188;2022-12-20T08:11:16;35.10;;;19.03;;
75450;SDS011;64029;48.244;9.188;2022-12-20T08:13:45;31.73;;;16.37;;
75450;SDS011;64029;48.244;9.188;2022-12-20T08:16:13;34.57;;;17.97;;
75450;SDS011;64029;48.244;9.188;2022-12-20T08:18:40;35.93;;;16.07;;
75450;SDS011;64029;48.244;9.188;2022-12-20T08:21:07;28.73;;;15.07;;
75450;SDS011;64029;48.244;9.188;2022-12-20T08:23:38;23.43;;;14.50;;
75450;SDS011;64029;48.244;9.188;2022-12-20T08:26:05;27.27;;;15.67;;
75450;SDS011;64029;48.244;9.188;2022-12-20T08:28:32;27.93;;;15.20;;
75450;SDS011;64029;48.244;9.188;2022-12-20T08:30:59;30.30;;;14.87;;
75450;SDS011;64029;48.244;9.188;2022-12-20T08:33:27;28.13;;;15.30;;
75450;SDS011;64029;48.244;9.188;2022-12-20T08:35:57;29.43;;;15.33;;
75450;SDS011;64029;48.244;9.188;2022-12-20T08:38:25;25.27;;;14.07;;
75450;SDS011;64029;48.244;9.188;2022-12-20T08:40:54;24.90;;;13.73;;
75450;SDS011;64029;48.244;9.188;2022-12-20T08:43:21;20.60;;;12.47;;
75450;SDS011;64029;48.244;9.188;2022-12-20T08:45:52;22.77;;;13.40;;
75450;SDS011;64029;48.244;9.188;2022-12-20T08:48:19;22.37;;;13.47;;
75450;SDS011;64029;48.244;9.188;2022-12-20T08:50:46;26.83;;;14.20;;
75450;SDS011;64029;48.244;9.188;2022-12-20T08:53:13;26.67;;;12.83;;
75450;SDS011;64029;48.244;9.188;2022-12-20T08:55:40;25.43;;;14.90;;
75450;SDS011;64029;48.244;9.188;2022-12-20T08:58:08;23.10;;;13.10;;
75450;SDS011;64029;48.244;9.188;2022-12-20T09:00:35;28.23;;;15.70;;
75450;SDS011;64029;48.244;9.188;2022-12-20T09:03:02;21.70;;;14.50;;
75450;SDS011;64029;48.244;9.188;2022-12-20T09:05:29;24.97;;;13.80;;
75450;SDS011;64029;48.244;9.188;2022-12-20T09:07:56;31.47;;;15.40;;
75450;SDS011;64029;48.244;9.188;2022-12-20T09:10:23;25.40;;;14.40;;
75450;SDS011;64029;48.244;9.188;2022-12-20T09:12:49;25.83;;;14.67;;
75450;SDS011;64029;48.244;9.188;2022-12-20T09:15:18;36.80;;;18.50;;
75450;SDS011;64029;48.244;9.188;2022-12-20T09:17:44;36.63;;;20.23;;
75450;SDS011;64029;48.244;9.188;2022-12-20T09:20:12;37.33;;;19.73;;
75450;SDS011;64029;48.244;9.188;2022-12-20T09:22:39;49.57;;;25.07;;
75450;SDS011;64029;48.244;9.188;2022-12-20T09:25:06;61.17;;;31.03;;
75450;SDS011;64029;48.244;9.188;2022-12-20T09:27:34;86.70;;;39.57;;
75450;SDS011;64029;48.244;9.188;2022-12-20T09:30:02;79.23;;;37.43;;
75450;SDS011;64029;48.244;9.188;2022-12-20T09:32:30;70.73;;;33.40;;
75450;SDS011;64029;48.244;9.188;2022-12-20T09:34:57;74.97;;;37.50;;
75450;SDS011;64029;48.244;9.188;2022-12-20T09:37:24;63.50;;;33.03;;
75450;SDS011;64029;48.244;9.188;2022-12-20T09:39:51;63.90;;;30.37;;
75450;SDS011;64029;48.244;9.188;2022-12-20T09:42:18;78.30;;;37.00;;
75450;SDS011;64029;48.244;9.188;2022-12-20T09:44:49;68.13;;;31.50;;
75450;SDS011;64029;48.244;9.188;2022-12-20T09:47:17;66.70;;;33.00;;
75450;SDS011;64029;48.244;9.188;2022-12-20T09:49:49;64.93;;;32.47;;
75450;SDS011;64029;48.244;9.188;2022-12-20T09:52:24;95.97;;;40.87;;
75450;SDS011;64029;48.244;9.188;2022-12-20T09:54:56;96.57;;;41.90;;
75450;SDS011;64029;48.244;9.188;2022-12-20T09:57:33;80.80;;;37.57;;
75450;SDS011;64029;48.244;9.188;2022-12-20T10:00:12;63.00;;;31.03;;
75450;SDS011;64029;48.244;9.188;2022-12-20T10:02:40;93.50;;;40.70;;
75450;SDS011;64029;48.244;9.188;2022-12-20T10:05:11;78.77;;;36.40;;
75450;SDS011;64029;48.244;9.188;2022-12-20T10:07:41;59.73;;;30.00;;
75450;SDS011;64029;48.244;9.188;2022-12-20T10:10:20;65.03;;;29.67;;
75450;SDS011;64029;48.244;9.188;2022-12-20T10:13:04;61.93;;;30.43;;
75450;SDS011;64029;48.244;9.188;2022-12-20T10:15:39;45.90;;;24.70;;
75450;SDS011;64029;48.244;9.188;2022-12-20T10:18:16;43.77;;;22.70;;
75450;SDS011;64029;48.244;9.188;2022-12-20T10:20:58;40.00;;;21.03;;
75450;SDS011;64029;48.244;9.188;2022-12-20T10:23:32;42.20;;;20.43;;
75450;SDS011;64029;48.244;9.188;2022-12-20T10:26:07;36.43;;;19.67;;
75450;SDS011;64029;48.244;9.188;2022-12-20T10:28:35;39.87;;;20.90;;
75450;SDS011;64029;48.244;9.188;2022-12-20T10:31:04;41.30;;;20.00;;
75450;SDS011;64029;48.244;9.188;2022-12-20T10:33:33;44.27;;;22.10;;
75450;SDS011;64029;48.244;9.188;2022-12-20T10:38:50;38.43;;;18.80;;
75450;SDS011;64029;48.244;9.188;2022-12-20T10:41:18;31.57;;;16.07;;
75450;SDS011;64029;48.244;9.188;2022-12-20T10:43:47;27.73;;;15.20;;
75450;SDS011;64029;48.244;9.188;2022-12-20T10:46:17;28.63;;;15.93;;
75450;SDS011;64029;48.244;9.188;2022-12-20T10:48:45;37.20;;;16.60;;
75450;SDS011;64029;48.244;9.188;2022-12-20T10:51:14;34.03;;;18.70;;
75450;SDS011;64029;48.244;9.188;2022-12-20T10:53:52;40.93;;;18.60;;
75450;SDS011;64029;48.244;9.188;2022-12-20T10:56:21;33.77;;;17.43;;
75450;SDS011;64029;48.244;9.188;2022-12-20T10:58:52;33.53;;;16.13;;
75450;SDS011;64029;48.244;9.188;2022-12-20T11:01:21;27.53;;;14.50;;
75450;SDS011;64029;48.244;9.188;2022-12-20T11:03:55;28.77;;;15.57;;
75450;SDS011;64029;48.244;9.188;2022-12-20T11:06:25;30.83;;;15.20;;
75450;SDS011;64029;48.244;9.188;2022-12-20T11:09:04;28.17;;;15.47;;
75450;SDS011;64029;48.244;9.188;2022-12-20T11:11:55;25.33;;;14.13;;
75450;SDS011;64029;48.244;9.188;2022-12-20T11:14:24;24.20;;;14.33;;
75450;SDS011;64029;48.244;9.188;2022-12-20T11:16:52;22.07;;;13.20;;
75450;SDS011;64029;48.244;9.188;2022-12-20T11:19:26;22.43;;;12.73;;
75450;SDS011;64029;48.244;9.188;2022-12-20T11:22:00;24.37;;;13.30;;
75450;SDS011;64029;48.244;9.188;2022-12-20T11:24:38;18.00;;;11.20;;
75450;SDS011;64029;48.244;9.188;2022-12-20T11:27:15;18.73;;;11.57;;
75450;SDS011;64029;48.244;9.188;2022-12-20T11:29:55;21.57;;;12.23;;
75450;SDS011;64029;48.244;9.188;2022-12-20T11:32:32;19.67;;;11.87;;
75450;SDS011;64029;48.244;9.188;2022-12-20T11:35:17;19.60;;;10.67;;
75450;SDS011;64029;48.244;9.188;2022-12-20T11:37:48;22.10;;;11.17;;
75450;SDS011;64029;48.244;9.188;2022-12-20T11:40:28;18.87;;;11.17;;
75450;SDS011;64029;48.244;9.188;2022-12-20T11:43:08;16.30;;;10.13;;
75450;SDS011;64029;48.244;9.188;2022-12-20T11:46:00;16.30;;;10.70;;
75450;SDS011;64029;48.244;9.188;2022-12-20T11:49:02;16.27;;;9.63;;
75450;SDS011;64029;48.244;9.188;2022-12-20T11:51:42;16.13;;;11.07;;
75450;SDS011;64029;48.244;9.188;2022-12-20T11:54:14;22.10;;;11.10;;
75450;SDS011;64029;48.244;9.188;2022-12-20T11:56:49;22.30;;;11.73;;
75450;SDS011;64029;48.244;9.188;2022-12-20T11:59:19;15.40;;;9.93;;
75450;SDS011;64029;48.244;9.188;2022-12-20T12:01:54;19.10;;;11.13;;
75450;SDS011;64029;48.244;9.188;2022-12-20T12:04:29;14.70;;;9.73;;
75450;SDS011;64029;48.244;9.188;2022-12-20T12:07:00;27.60;;;13.53;;
75450;SDS011;64029;48.244;9.188;2022-12-20T12:09:31;20.77;;;11.97;;
75450;SDS011;64029;48.244;9.188;2022-12-20T12:12:03;23.27;;;12.73;;
75450;SDS011;64029;48.244;9.188;2022-12-20T12:14:42;28.23;;;14.80;;
75450;SDS011;64029;48.244;9.188;2022-12-20T12:17:16;32.93;;;17.30;;
75450;SDS011;64029;48.244;9.188;2022-12-20T12:19:50;29.53;;;15.83;;
75450;SDS011;64029;48.244;9.188;2022-12-20T12:22:22;28.00;;;18.47;;
75450;SDS011;64029;48.244;9.188;2022-12-20T12:24:56;33.30;;;22.03;;
75450;SDS011;64029;48.244;9.188;2022-12-20T12:27:28;42.47;;;28.67;;
75450;SDS011;64029;48.244;9.188;2022-12-20T12:29:56;42.07;;;29.03;;
75450;SDS011;64029;48.244;9.188;2022-12-20T12:32:25;43.80;;;27.67;;
75450;SDS011;64029;48.244;9.188;2022-12-20T12:35:02;34.70;;;25.47;;
75450;SDS011;64029;48.244;9.188;2022-12-20T12:37:48;37.93;;;25.10;;
75450;SDS011;64029;48.244;9.188;2022-12-20T12:40:30;35.73;;;22.67;;
75450;SDS011;64029;48.244;9.188;2022-12-20T12:43:10;28.70;;;20.17;;
75450;SDS011;64029;48.244;9.188;2022-12-20T12:45:49;26.07;;;18.00;;
75450;SDS011;64029;48.244;9.188;2022-12-20T12:48:18;25.00;;;17.27;;
75450;SDS011;64029;48.244;9.188;2022-12-20T12:50:49;27.80;;;18.87;;
75450;SDS011;64029;48.244;9.188;2022-12-20T12:53:18;27.70;;;18.00;;
75450;SDS011;64029;48.244;9.188;2022-12-20T12:55:49;22.90;;;15.73;;
75450;SDS011;64029;48.244;9.188;2022-12-20T13:01:07;25.20;;;16.10;;
75450;SDS011;64029;48.244;9.188;2022-12-20T13:06:42;22.00;;;15.03;;
75450;SDS011;64029;48.244;9.188;2022-12-20T13:09:34;31.40;;;19.40;;
75450;SDS011;64029;48.244;9.188;2022-12-20T13:18:21;26.80;;;19.37;;
75450;SDS011;64029;48.244;9.188;2022-12-20T13:27:02;17.63;;;13.17;;
75450;SDS011;64029;48.244;9.188;2022-12-20T13:29:50;16.83;;;12.53;;
75450;SDS011;64029;48.244;9.188;2022-12-20T13:32:57;25.67;;;15.57;;
75450;SDS011;64029;48.244;9.188;2022-12-20T13:36:00;20.70;;;13.60;;
75450;SDS011;64029;48.244;9.188;2022-12-20T13:41:35;19.63;;;13.30;;
75450;SDS011;64029;48.244;9.188;2022-12-20T13:44:18;20.90;;;13.40;;
75450;SDS011;64029;48.244;9.188;2022-12-20T13:46:57;18.47;;;12.50;;
75450;SDS011;64029;48.244;9.188;2022-12-20T13:49:31;22.03;;;12.70;;
75450;SDS011;64029;48.244;9.188;2022-12-20T13:52:11;19.83;;;14.43;;
75450;SDS011;64029;48.244;9.188;2022-12-20T13:54:47;21.40;;;12.17;;
75450;SDS011;64029;48.244;9.188;2022-12-20T13:57:16;16.57;;;12.20;;
75450;SDS011;64029;48.244;9.188;2022-12-20T13:59:47;21.20;;;13.53;;
75450;SDS011;64029;48.244;9.188;2022-12-20T14:02:17;20.37;;;13.20;;
75450;SDS011;64029;48.244;9.188;2022-12-20T14:04:49;20.00;;;13.20;;
75450;SDS011;64029;48.244;9.188;2022-12-20T14:07:23;18.57;;;12.50;;
75450;SDS011;64029;48.244;9.188;2022-12-20T14:09:54;21.43;;;14.10;;
75450;SDS011;64029;48.244;9.188;2022-12-20T14:12:22;17.60;;;12.53;;
75450;SDS011;64029;48.244;9.188;2022-12-20T14:14:49;20.70;;;13.67;;
75450;SDS011;64029;48.244;9.188;2022-12-20T14:17:19;23.93;;;15.23;;
75450;SDS011;64029;48.244;9.188;2022-12-20T14:20:02;32.03;;;20.43;;
75450;SDS011;64029;48.244;9.188;2022-12-20T14:22:30;26.60;;;18.60;;
75450;SDS011;64029;48.244;9.188;2022-12-20T14:24:58;22.27;;;16.40;;
75450;SDS011;64029;48.244;9.188;2022-12-20T14:27:27;25.90;;;16.80;;
75450;SDS011;64029;48.244;9.188;2022-12-20T14:29:58;21.70;;;15.60;;
75450;SDS011;64029;48.244;9.188;2022-12-20T14:32:25;21.20;;;15.73;;
75450;SDS011;64029;48.244;9.188;2022-12-20T14:34:52;25.63;;;16.20;;
75450;SDS011;64029;48.244;9.188;2022-12-20T14:37:26;29.50;;;18.47;;
75450;SDS011;64029;48.244;9.188;2022-12-20T14:39:55;24.53;;;15.93;;
75450;SDS011;64029;48.244;9.188;2022-12-20T14:42:27;31.17;;;18.10;;
75450;SDS011;64029;48.244;9.188;2022-12-20T14:45:05;22.03;;;14.77;;
75450;SDS011;64029;48.244;9.188;2022-12-20T14:47:46;21.27;;;15.07;;
75450;SDS011;64029;48.244;9.188;2022-12-20T14:50:16;22.50;;;14.80;;
75450;SDS011;64029;48.244;9.188;2022-12-20T14:52:46;29.77;;;18.97;;
75450;SDS011;64029;48.244;9.188;2022-12-20T14:55:14;38.73;;;21.90;;
75450;SDS011;64029;48.244;9.188;2022-12-20T14:57:44;33.47;;;19.43;;
75450;SDS011;64029;48.244;9.188;2022-12-20T15:00:15;35.87;;;20.77;;
75450;SDS011;64029;48.244;9.188;2022-12-20T15:02:48;38.10;;;21.90;;